Enter the Airport ICAO Code

Search by Airport or City

Current Weather

LEGR | Federico García Lorca Airport (Granada Jaén Airport)

Granada, Andalusia, Spain

Last Update 11 Minutes Ago

Light Rain

Temperature of 18 ºC

Light Winds from Variable Directions

Temperature

18 ºC

Dew Point Temperature

12 ºC

Relative Humidity

68.11 %

Wind Direction

Variable

Wind Velocity

4 km/h (02 kt)

Gusts

None

Visibility

Greater than 10 Kilometers

Sea Level Pressure

1017 hPa (Hectopascals)

Layers of Clouds

5% to 30% of Sky Covered from 457 mts (1500 ft) Above Ground Level.

30% to 60% of Sky Covered from 2743 mts (9000 ft) Above Ground Level.

METAR LEGR 191200Z VRB02KT 9999 -RA FEW015 SCT090 18/12 Q1017

Weather Forecast

LEGR | Federico García Lorca Airport (Granada Jaén Airport)

Granada, Andalusia, Spain

Forecast valid for the next 24 Hours

From now on it is expected:

Sky with Few Clouds

Light to Moderate Winds from West

Maximum Temperature

25 ºC in 6 Hours

Minimum Temperature

13 ºC in 17 Hours

TAF LEGR 191100Z 1912/2012 29009KT 9999 FEW060 TX25/1918Z TN13/2005Z